Time;durP1;ratioP1;P1;durP2;ratioP2;P2;SDS_P1;SDS_P2;PMS_P1;PMS_P2;Temp;Humidity;BMP_temperature;BMP_pressure;BME280_temperature;BME280_humidity;BME280_pressure;Samples;Min_cycle;Max_cycle;Signal;HPM_P1;HPM_P2
2022/05/24 00:02:04;;;;;;;;;;;;;;;19.60;44.76;99200.44;4941766;28;98366;-63
2022/05/24 00:04:30;;;;;;;;;;;;;;;19.64;44.35;99197.81;4941058;28;124113;-63
2022/05/24 00:06:57;;;;;;;;;;;;;;;19.67;44.41;99201.78;4955758;28;98024;-63
2022/05/24 00:09:23;;;;;;;;;;;;;;;19.68;44.51;99198.66;4938288;28;116991;-63
2022/05/24 00:11:48;;;;;;;;;;;;;;;19.71;44.67;99197.97;4939909;28;127387;-65
2022/05/24 00:14:14;;;;;;;;;;;;;;;19.73;44.72;99206.59;4939831;28;129000;-70
2022/05/24 00:16:40;;;;;;;;;;;;;;;19.75;44.55;99211.69;4957818;28;97847;-69
2022/05/24 00:19:06;;;;;;;;;;;;;;;19.75;44.79;99200.78;4939237;28;128322;-69
2022/05/24 00:21:32;;;;;;;;;;;;;;;19.77;44.83;99203.94;4957745;28;128976;-70
2022/05/24 00:23:59;;;;;;;;;;;;;;;19.78;44.94;99203.56;4940823;28;98518;-63
2022/05/24 00:26:30;;;;;;;;;;;;;;;19.80;44.79;99203.22;4954055;28;98844;-70
2022/05/24 00:28:56;;;;;;;;;;;;;;;19.82;44.92;99203.66;4930342;28;98017;-69
2022/05/24 00:31:22;;;;;;;;;;;;;;;19.82;44.84;99198.97;4940236;28;121377;-70
2022/05/24 00:33:48;;;;;;;;;;;;;;;19.84;44.63;99199.41;4939798;28;126731;-63
2022/05/24 00:36:14;;;;;;;;;;;;;;;19.86;44.61;99202.56;4947525;28;104526;-63
2022/05/24 00:38:40;;;;;;;;;;;;;;;19.87;44.75;99206.09;4927723;28;98974;-70
2022/05/24 00:41:24;;;;;;;;;;;;;;;19.88;44.92;99204.16;4938963;28;124076;-63
2022/05/24 00:44:02;;;;;;;;;;;;;;;19.89;44.86;99205.75;4949141;28;97777;-63
2022/05/24 00:46:29;;;;;;;;;;;;;;;19.89;44.67;99200.28;4940984;28;97921;-68
2022/05/24 00:49:28;;;;;;;;;;;;;;;19.88;45.19;99204.16;4943160;28;99266;-63
2022/05/24 00:52:08;;;;;;;;;;;;;;;19.88;44.83;99202.19;4915612;28;98871;-63
2022/05/24 00:54:34;;;;;;;;;;;;;;;19.89;44.94;99195.59;4938085;28;98358;-68
2022/05/24 00:57:22;;;;;;;;;;;;;;;19.89;44.72;99195.59;4955863;28;108438;-63
2022/05/24 01:00:06;;;;;;;;;;;;;;;19.89;44.72;99198.34;4938949;28;101404;-64
2022/05/24 01:02:32;;;;;;;;;;;;;;;19.91;45.00;99200.69;4938720;28;111514;-63
2022/05/24 01:04:58;;;;;;;;;;;;;;;19.90;44.79;99196.38;4941713;28;98026;-69
2022/05/24 01:07:24;;;;;;;;;;;;;;;19.89;44.98;99192.09;4956972;28;121049;-69
2022/05/24 01:10:11;;;;;;;;;;;;;;;19.88;45.15;99198.69;4958563;28;127887;-63
2022/05/24 01:12:42;;;;;;;;;;;;;;;19.85;45.18;99206.47;4957208;28;98484;-69
2022/05/24 01:15:08;;;;;;;;;;;;;;;19.85;44.98;99211.16;4957920;28;99979;-69
2022/05/24 01:17:35;;;;;;;;;;;;;;;19.85;44.78;99214.66;4939328;28;98097;-63
2022/05/24 01:20:01;;;;;;;;;;;;;;;19.84;45.17;99206.81;4954137;28;122026;-63
2022/05/24 01:22:59;;;;;;;;;;;;;;;19.83;45.31;99210.69;4953386;28;128535;-69
2022/05/24 01:25:34;;;;;;;;;;;;;;;19.81;45.25;99205.59;4938948;28;117177;-70
2022/05/24 01:28:00;;;;;;;;;;;;;;;19.79;45.34;99207.09;4955749;28;98010;-63
2022/05/24 01:30:26;;;;;;;;;;;;;;;19.77;45.50;99206.69;4938493;28;126070;-70
2022/05/24 01:38:21;;;;;;;;;;;;;;;19.75;45.32;99204.28;4949202;28;97837;-70
2022/05/24 01:40:48;;;;;;;;;;;;;;;19.74;45.50;99202.72;4937603;28;98526;-71
2022/05/24 01:43:15;;;;;;;;;;;;;;;19.73;45.59;99209.34;4953443;28;122094;-64
2022/05/24 01:45:49;;;;;;;;;;;;;;;19.74;45.53;99204.66;4949625;28;110636;-70
2022/05/24 01:48:22;;;;;;;;;;;;;;;19.73;45.33;99209.34;4933585;28;97854;-71
2022/05/24 01:50:48;;;;;;;;;;;;;;;19.71;45.70;99206.16;4940500;28;125290;-64
2022/05/24 01:53:20;;;;;;;;;;;;;;;19.71;45.59;99217.09;4940216;28;113344;-69
2022/05/24 01:55:50;;;;;;;;;;;;;;;19.70;45.71;99218.25;4940446;28;97981;-64
2022/05/24 01:58:16;;;;;;;;;;;;;;;19.69;45.74;99213.94;4936445;28;98103;-71
2022/05/24 02:00:46;;;;;;;;;;;;;;;19.68;45.75;99220.53;4938497;28;98976;-71
2022/05/24 02:03:12;;;;;;;;;;;;;;;19.68;45.89;99230.69;4937164;28;98104;-70
2022/05/24 02:05:39;;;;;;;;;;;;;;;19.67;46.10;99221.69;4941913;28;97841;-64
2022/05/24 02:08:07;;;;;;;;;;;;;;;19.66;45.97;99222.84;4954537;28;121590;-64
2022/05/24 02:10:37;;;;;;;;;;;;;;;19.66;45.79;99219.34;4939085;28;98096;-64
2022/05/24 02:13:03;;;;;;;;;;;;;;;19.65;45.96;99223.19;4948664;28;124513;-71
2022/05/24 02:15:30;;;;;;;;;;;;;;;19.64;46.19;99221.63;4958354;28;98006;-65
2022/05/24 02:18:07;;;;;;;;;;;;;;;19.63;46.03;99231.75;4953285;28;98265;-71
2022/05/24 02:20:34;;;;;;;;;;;;;;;19.61;45.95;99225.84;4939029;28;99200;-65
2022/05/24 02:23:00;;;;;;;;;;;;;;;19.62;46.14;99224.72;4939938;28;127306;-70
2022/05/24 02:25:35;;;;;;;;;;;;;;;19.61;46.50;99223.09;4937153;28;99152;-65
2022/05/24 02:28:02;;;;;;;;;;;;;;;19.60;46.42;99222.28;4941445;28;120445;-70
2022/05/24 02:30:28;;;;;;;;;;;;;;;19.60;46.25;99227.75;4958723;28;98314;-65
2022/05/24 02:32:54;;;;;;;;;;;;;;;19.61;46.35;99226.66;4955918;28;120238;-65
2022/05/24 02:35:20;;;;;;;;;;;;;;;19.61;46.34;99223.94;4957027;28;127655;-65
2022/05/24 02:37:46;;;;;;;;;;;;;;;19.63;46.64;99231.75;4957573;28;97760;-65
2022/05/24 02:42:57;;;;;;;;;;;;;;;19.62;46.53;99232.91;4936537;28;98124;-65
2022/05/24 02:45:23;;;;;;;;;;;;;;;19.60;47.00;99233.22;4947109;28;98162;-70
2022/05/24 02:47:49;;;;;;;;;;;;;;;19.60;46.93;99233.22;4957701;28;97920;-65
2022/05/24 02:50:15;;;;;;;;;;;;;;;19.59;46.96;99234.38;4938465;28;105256;-70
2022/05/24 02:52:41;;;;;;;;;;;;;;;19.59;47.11;99245.31;4938658;28;104929;-65
2022/05/24 02:55:10;;;;;;;;;;;;;;;19.57;47.46;99233.97;4938061;28;127873;-70
2022/05/24 02:57:37;;;;;;;;;;;;;;;19.58;47.28;99237.47;4954785;28;97756;-64
2022/05/24 03:00:05;;;;;;;;;;;;;;;19.57;47.22;99239.44;4940033;28;98894;-69
2022/05/24 03:02:31;;;;;;;;;;;;;;;19.56;47.86;99242.50;4935957;28;125819;-64
2022/05/24 03:04:56;;;;;;;;;;;;;;;19.56;47.79;99245.22;4958048;28;128170;-64
2022/05/24 03:10:07;;;;;;;;;;;;;;;19.53;48.65;99240.47;4942194;28;98332;-64
2022/05/24 03:15:18;;;;;;;;;;;;;;;19.53;48.59;99243.19;4940735;28;97955;-64
2022/05/24 03:17:44;;;;;;;;;;;;;;;19.55;48.33;99246.38;4949592;28;97641;-64
2022/05/24 03:20:10;;;;;;;;;;;;;;;19.57;48.20;99252.28;4941944;28;128120;-70
2022/05/24 03:22:36;;;;;;;;;;;;;;;19.59;48.58;99258.19;4941276;28;125543;-70
2022/05/24 03:25:02;;;;;;;;;;;;;;;19.59;48.93;99253.50;4941122;28;126865;-69
2022/05/24 03:27:28;;;;;;;;;;;;;;;19.59;49.64;99264.44;4940887;28;121899;-64
2022/05/24 03:29:54;;;;;;;;;;;;;;;19.60;49.16;99267.97;4956387;28;111103;-69
2022/05/24 03:32:20;;;;;;;;;;;;;;;19.60;49.41;99270.69;4960495;28;126963;-69
2022/05/24 03:34:46;;;;;;;;;;;;;;;19.60;49.50;99276.94;4942174;28;125321;-68
2022/05/24 03:37:11;;;;;;;;;;;;;;;19.62;49.63;99276.66;4941318;28;120950;-64
2022/05/24 03:39:37;;;;;;;;;;;;;;;19.63;50.06;99277.44;4950412;28;127170;-64
2022/05/24 03:42:04;;;;;;;;;;;;;;;19.65;50.27;99286.06;4961883;28;98377;-69
2022/05/24 03:44:30;;;;;;;;;;;;;;;19.63;50.48;99275.50;4959268;28;122170;-70
2022/05/24 03:46:56;;;;;;;;;;;;;;;19.61;50.59;99281.31;4958989;28;110652;-71
2022/05/24 03:49:22;;;;;;;;;;;;;;;19.58;51.48;99278.47;4949435;28;98307;-65
2022/05/24 03:51:48;;;;;;;;;;;;;;;19.56;51.76;99278.03;4953915;28;128027;-64
2022/05/24 03:54:14;;;;;;;;;;;;;;;19.55;52.54;99281.91;4959440;28;126739;-63
2022/05/24 03:57:59;;;;;;;;;;;;;;;19.52;52.37;99283.41;4960982;28;104442;-70
2022/05/24 03:59:29;;;;;;;;;;;;;;;19.49;53.72;99283.31;4948064;28;98894;-64
2022/05/24 04:01:55;;;;;;;;;;;;;;;19.46;54.31;99281.31;4941146;28;113293;-70
2022/05/24 04:04:21;;;;;;;;;;;;;;;19.45;53.47;99287.91;4939789;28;127816;-68
2022/05/24 04:06:47;;;;;;;;;;;;;;;19.45;53.82;99285.97;4953692;28;123287;-68
2022/05/24 04:09:13;;;;;;;;;;;;;;;19.46;54.24;99298.50;4959323;28;98281;-68
2022/05/24 04:11:39;;;;;;;;;;;;;;;19.48;54.03;99296.19;4946292;28;126927;-63
2022/05/24 04:14:04;;;;;;;;;;;;;;;19.50;54.76;99301.31;4955279;28;127211;-63
2022/05/24 04:16:31;;;;;;;;;;;;;;;19.55;54.64;99293.63;4938347;28;120776;-64
2022/05/24 04:18:57;;;;;;;;;;;;;;;19.60;54.47;99295.28;4955523;28;99050;-63
2022/05/24 04:21:23;;;;;;;;;;;;;;;19.64;54.55;99298.94;4940460;28;128157;-68
2022/05/24 04:23:49;;;;;;;;;;;;;;;19.69;54.35;99301.41;4940560;28;126826;-63
2022/05/24 04:26:15;;;;;;;;;;;;;;;19.74;54.72;99303.06;4940702;28;116972;-63
2022/05/24 04:28:41;;;;;;;;;;;;;;;19.82;54.26;99304.81;4964165;28;118106;-70
2022/05/24 04:31:07;;;;;;;;;;;;;;;19.94;54.02;99306.63;4959382;28;125680;-70
2022/05/24 04:33:33;;;;;;;;;;;;;;;20.07;53.64;99297.91;4905704;28;127555;-63
2022/05/24 04:35:59;;;;;;;;;;;;;;;20.13;53.91;99316.81;4950980;28;122660;-63
2022/05/24 04:38:25;;;;;;;;;;;;;;;20.24;54.09;99307.66;4934360;28;115137;-63
2022/05/24 04:43:36;;;;;;;;;;;;;;;20.58;53.21;99313.44;4940749;28;98150;-63
2022/05/24 04:46:02;;;;;;;;;;;;;;;20.66;53.27;99319.84;4950796;28;97804;-71
2022/05/24 04:48:28;;;;;;;;;;;;;;;20.69;53.22;99317.16;4949684;28;99124;-69
2022/05/24 04:50:55;;;;;;;;;;;;;;;20.76;53.58;99322.00;4936811;28;128569;-69
2022/05/24 04:53:21;;;;;;;;;;;;;;;20.76;53.36;99325.53;4937157;28;98154;-70
2022/05/24 04:55:49;;;;;;;;;;;;;;;20.75;53.18;99332.16;4936202;28;121061;-63
2022/05/24 04:58:15;;;;;;;;;;;;;;;20.68;53.17;99328.50;4937654;28;98996;-69
2022/05/24 05:00:41;;;;;;;;;;;;;;;20.61;53.35;99337.34;4937110;28;128272;-63
2022/05/24 05:03:11;;;;;;;;;;;;;;;20.55;53.41;99336.88;4940394;28;127975;-64
2022/05/24 05:05:37;;;;;;;;;;;;;;;20.51;53.51;99335.97;4943354;28;97961;-63
2022/05/24 05:08:04;;;;;;;;;;;;;;;;;;4959973;28;98577;-63
2022/05/24 05:10:30;;;;;;;;;;;;;;;20.57;53.39;99336.50;4960555;28;98491;-71
2022/05/24 05:12:56;;;;;;;;;;;;;;;20.65;53.60;99338.22;4957873;28;102853;-63
2022/05/24 05:15:22;;;;;;;;;;;;;;;20.78;53.08;99342.38;4959766;28;106558;-69
2022/05/24 05:17:48;;;;;;;;;;;;;;;20.88;52.91;99342.94;4957537;28;128181;-64
2022/05/24 05:20:14;;;;;;;;;;;;;;;20.87;53.00;99338.59;4959089;28;98061;-63
2022/05/24 05:22:40;;;;;;;;;;;;;;;20.84;52.89;99343.66;4951377;28;98724;-69
2022/05/24 05:25:07;;;;;;;;;;;;;;;20.83;52.94;99342.09;4938732;28;122275;-69
2022/05/24 05:27:33;;;;;;;;;;;;;;;20.88;52.89;99345.69;4939042;28;98010;-69
2022/05/24 05:32:54;;;;;;;;;;;;;;;21.32;52.14;99352.38;4925848;28;98181;-70
2022/05/24 05:35:20;;;;;;;;;;;;;;;21.35;52.00;99361.03;4938491;28;120093;-63
2022/05/24 05:37:46;;;;;;;;;;;;;;;21.38;51.97;99361.09;4938973;28;128880;-63
2022/05/24 05:40:13;;;;;;;;;;;;;;;21.39;52.00;99365.41;4938263;28;128015;-69
2022/05/24 05:42:39;;;;;;;;;;;;;;;21.47;52.03;99361.63;4940352;28;124672;-64
2022/05/24 05:45:06;;;;;;;;;;;;;;;21.52;51.85;99374.22;4945537;28;97999;-63
2022/05/24 05:47:32;;;;;;;;;;;;;;;21.63;51.60;99377.94;4959343;28;99390;-70
2022/05/24 05:49:58;;;;;;;;;;;;;;;21.77;51.38;99385.56;4958776;28;98064;-64
2022/05/24 05:52:24;;;;;;;;;;;;;;;21.74;51.52;99387.13;4953041;28;127929;-69
2022/05/24 05:54:49;;;;;;;;;;;;;;;21.74;51.45;99392.59;4939598;28;121550;-70
2022/05/24 05:57:15;;;;;;;;;;;;;;;21.73;51.41;99393.78;4938563;28;128047;-70
2022/05/24 05:59:41;;;;;;;;;;;;;;;21.80;51.32;99407.56;4938465;28;127660;-70
2022/05/24 06:02:07;;;;;;;;;;;;;;;21.84;51.34;99406.84;4942772;28;127658;-63
2022/05/24 06:04:33;;;;;;;;;;;;;;;21.81;51.20;99411.09;4958496;28;111047;-70
2022/05/24 06:06:59;;;;;;;;;;;;;;;21.90;51.16;99411.66;4957276;28;98979;-70
2022/05/24 06:09:25;;;;;;;;;;;;;;;22.04;50.90;99413.81;4958623;28;98269;-69
2022/05/24 06:11:51;;;;;;;;;;;;;;;22.19;50.66;99412.09;4957340;28;126978;-69
2022/05/24 06:14:17;;;;;;;;;;;;;;;22.44;50.24;99413.25;4955488;28;123371;-68
2022/05/24 06:16:43;;;;;;;;;;;;;;;24.03;47.87;99403.47;4940638;28;128996;-70
2022/05/24 06:19:09;;;;;;;;;;;;;;;23.98;47.90;99401.88;4956003;28;127218;-70
2022/05/24 06:21:35;;;;;;;;;;;;;;;25.32;46.11;99407.59;4957359;28;98072;-68
2022/05/24 06:24:10;;;;;;;;;;;;;;;25.11;46.49;99410.28;4955340;28;104890;-70
2022/05/24 06:26:36;;;;;;;;;;;;;;;24.74;47.43;99420.38;4957437;28;98651;-71
2022/05/24 06:29:02;;;;;;;;;;;;;;;24.68;47.51;99412.88;4936512;28;113481;-71
2022/05/24 06:31:28;;;;;;;;;;;;;;;24.47;47.41;99413.59;4936746;28;98406;-63
2022/05/24 06:33:54;;;;;;;;;;;;;;;24.28;47.34;99417.38;4955042;28;98606;-63
2022/05/24 06:36:20;;;;;;;;;;;;;;;24.07;47.34;99426.31;4956911;28;129165;-70
2022/05/24 06:38:46;;;;;;;;;;;;;;;23.98;47.38;99437.66;4954392;28;125960;-70
2022/05/24 06:41:12;;;;;;;;;;;;;;;24.01;47.54;99436.06;4941745;28;127568;-63
2022/05/24 06:43:38;;;;;;;;;;;;;;;23.91;47.50;99439.56;4935686;28;98292;-70
2022/05/24 06:46:10;;;;;;;;;;;;;;;23.67;47.97;99443.69;4950161;28;127443;-63
2022/05/24 06:48:36;;;;;;;;;;;;;;;23.40;48.01;99452.03;4943112;28;99153;-70
2022/05/24 06:51:14;;;;;;;;;;;;;;;23.24;48.21;99457.00;4950965;28;97955;-70
2022/05/24 06:53:40;;;;;;;;;;;;;;;23.19;47.94;99451.84;4959194;28;98671;-69
2022/05/24 06:56:06;;;;;;;;;;;;;;;23.15;48.00;99454.53;4940915;28;127940;-69
2022/05/24 06:58:33;;;;;;;;;;;;;;;23.01;48.21;99463.41;4948261;28;98131;-63
2022/05/24 07:03:45;;;;;;;;;;;;;;;23.15;48.22;99473.00;4944987;28;97784;-64
2022/05/24 07:06:12;;;;;;;;;;;;;;;23.12;48.35;99479.25;4951881;28;98207;-70
2022/05/24 07:08:39;;;;;;;;;;;;;;;23.31;48.00;99483.78;4943799;28;98587;-63
2022/05/24 07:11:05;;;;;;;;;;;;;;;23.75;47.48;99473.63;4959163;28;102850;-69
2022/05/24 07:13:31;;;;;;;;;;;;;;;24.00;47.41;99482.06;4955920;28;122677;-63
2022/05/24 07:15:57;;;;;;;;;;;;;;;24.04;47.46;99481.31;4952763;28;113369;-62
2022/05/24 07:18:25;;;;;;;;;;;;;;;24.06;47.14;99481.75;4960482;28;126335;-69
2022/05/24 07:20:51;;;;;;;;;;;;;;;24.04;47.41;99484.84;4943970;28;99465;-63
2022/05/24 07:23:19;;;;;;;;;;;;;;;23.88;47.65;99485.13;4948830;28;97989;-69
2022/05/24 07:25:45;;;;;;;;;;;;;;;23.71;47.79;99494.81;4941386;28;97960;-69
2022/05/24 07:28:12;;;;;;;;;;;;;;;23.58;47.81;99495.41;4940862;28;128402;-62
2022/05/24 07:30:38;;;;;;;;;;;;;;;23.49;48.00;99502.00;4954631;28;124161;-62
2022/05/24 07:33:05;;;;;;;;;;;;;;;23.42;48.02;99495.66;4952378;28;98218;-62
2022/05/24 07:35:31;;;;;;;;;;;;;;;23.41;48.12;99497.59;4960982;28;99027;-68
2022/05/24 07:37:57;;;;;;;;;;;;;;;23.48;47.94;99499.66;4960802;28;128217;-69
2022/05/24 07:45:54;;;;;;;;;;;;;;;23.46;47.83;99519.28;4953522;28;98051;-62
2022/05/24 07:48:20;;;;;;;;;;;;;;;23.49;47.68;99524.00;4944447;28;101909;-70
2022/05/24 07:50:46;;;;;;;;;;;;;;;23.44;47.43;99513.34;4938720;28;98007;-62
2022/05/24 07:53:12;;;;;;;;;;;;;;;23.40;47.00;99526.28;4953462;28;116695;-68
2022/05/24 07:55:38;;;;;;;;;;;;;;;23.39;47.07;99521.16;4960689;28;103437;-70
2022/05/24 07:58:04;;;;;;;;;;;;;;;23.47;47.00;99531.06;4959763;28;98100;-63
2022/05/24 08:00:31;;;;;;;;;;;;;;;23.56;46.93;99530.75;4959373;28;98149;-63
2022/05/24 08:02:57;;;;;;;;;;;;;;;23.71;46.37;99529.78;4950540;28;122170;-69
2022/05/24 08:05:23;;;;;;;;;;;;;;;23.91;45.95;99539.41;4940494;28;127995;-68
2022/05/24 08:07:50;;;;;;;;;;;;;;;24.07;46.08;99532.84;4942418;28;101087;-62
2022/05/24 08:10:16;;;;;;;;;;;;;;;24.34;45.99;99528.75;4939905;28;98570;-68
2022/05/24 08:12:42;;;;;;;;;;;;;;;24.64;45.56;99534.09;4948838;28;106526;-62
2022/05/24 08:15:10;;;;;;;;;;;;;;;25.04;45.12;99531.53;4959688;28;124809;-70
2022/05/24 08:17:36;;;;;;;;;;;;;;;25.34;44.59;99540.31;4957787;28;98666;-69
2022/05/24 08:20:03;;;;;;;;;;;;;;;25.64;44.29;99536.47;4959119;28;127972;-62
2022/05/24 08:22:29;;;;;;;;;;;;;;;25.78;44.16;99541.25;4960595;28;98014;-69
2022/05/24 08:24:55;;;;;;;;;;;;;;;25.86;44.06;99540.06;4940431;28;129383;-63
2022/05/24 08:27:20;;;;;;;;;;;;;;;25.58;44.21;99546.31;4939680;28;128274;-63
2022/05/24 08:29:46;;;;;;;;;;;;;;;25.42;44.29;99544.69;4957036;28;125396;-69
2022/05/24 08:32:12;;;;;;;;;;;;;;;25.52;43.90;99545.91;4941385;28;122824;-69
2022/05/24 08:34:38;;;;;;;;;;;;;;;25.44;43.98;99545.09;4936452;28;127360;-69
2022/05/24 08:37:05;;;;;;;;;;;;;;;25.65;43.65;99543.56;4947879;28;127807;-63
2022/05/24 08:39:31;;;;;;;;;;;;;;;27.65;40.97;99543.25;4948800;28;127407;-63
2022/05/24 08:42:18;;;;;;;;;;;;;;;29.56;38.93;99541.00;4940058;28;122425;-63
2022/05/24 08:48:25;;;;;;;;;;;;;;;30.48;38.18;99547.13;4940743;28;101521;-63
2022/05/24 08:50:55;;;;;;;;;;;;;;;30.55;37.69;99547.00;4958677;28;98154;-63
2022/05/24 08:53:37;;;;;;;;;;;;;;;30.04;37.71;99546.25;4958211;28;115732;-70
2022/05/24 08:56:07;;;;;;;;;;;;;;;29.94;37.75;99555.53;4949267;28;98450;-69
2022/05/24 08:58:38;;;;;;;;;;;;;;;29.20;38.47;99560.09;4947863;28;123107;-70
2022/05/24 09:01:21;;;;;;;;;;;;;;;30.01;37.04;99549.09;4957773;28;98003;-63
2022/05/24 09:03:47;;;;;;;;;;;;;;;29.15;38.16;99549.47;4942648;28;97904;-63
2022/05/24 09:06:26;;;;;;;;;;;;;;;29.09;38.54;99540.84;4939079;28;100815;-64
2022/05/24 09:09:31;;;;;;;;;;;;;;;28.85;38.22;99543.47;4958106;28;98193;-63
2022/05/24 09:12:23;;;;;;;;;;;;;;;30.48;36.51;99549.13;4960280;28;97957;-63
2022/05/24 09:15:01;;;;;;;;;;;;;;;31.43;35.54;99545.69;4943791;28;118400;-70
2022/05/24 09:17:46;;;;;;;;;;;;;;;31.17;35.88;99557.75;4959927;28;98317;-70
2022/05/24 09:20:33;;;;;;;;;;;;;;;30.94;35.94;99567.75;4957750;28;99090;-69
2022/05/24 09:23:06;;;;;;;;;;;;;;;30.01;36.73;99562.97;4959400;28;98286;-70
2022/05/24 09:25:32;;;;;;;;;;;;;;;29.27;37.24;99568.34;4956898;28;98009;-62
2022/05/24 09:27:59;;;;;;;;;;;;;;;28.67;37.86;99567.81;4959263;28;119967;-70
2022/05/24 09:30:34;;;;;;;;;;;;;;;28.33;38.19;99565.69;4959869;28;99275;-63
2022/05/24 09:33:23;;;;;;;;;;;;;;;27.91;38.78;99560.53;4956113;28;97844;-68
2022/05/24 09:35:51;;;;;;;;;;;;;;;27.59;39.09;99576.09;4945798;28;98291;-69
2022/05/24 09:38:17;;;;;;;;;;;;;;;27.35;39.41;99571.47;4949138;28;98321;-62
2022/05/24 09:40:49;;;;;;;;;;;;;;;27.30;39.30;99578.22;4954781;28;98543;-68
2022/05/24 09:43:35;;;;;;;;;;;;;;;27.17;39.92;99588.94;4941275;28;98446;-63
2022/05/24 09:46:05;;;;;;;;;;;;;;;29.00;37.33;99585.69;4953340;28;98142;-62
2022/05/24 09:48:32;;;;;;;;;;;;;;;31.64;34.74;99585.41;4959335;28;98726;-69
2022/05/24 09:50:59;;;;;;;;;;;;;;;33.86;31.99;99597.13;4959668;28;98632;-69
2022/05/24 09:53:27;;;;;;;;;;;;;;;34.58;31.45;99592.81;4955448;28;98064;-69
2022/05/24 09:55:59;;;;;;;;;;;;;;;34.29;31.45;99582.56;4952693;28;97752;-70
2022/05/24 09:58:54;;;;;;;;;;;;;;;34.43;31.21;99570.91;4961169;28;98591;-69
2022/05/24 10:01:40;;;;;;;;;;;;;;;33.05;32.10;99587.13;4958606;28;98310;-69
2022/05/24 10:04:16;;;;;;;;;;;;;;;32.59;32.26;99573.19;4958867;28;98403;-69
2022/05/24 10:06:55;;;;;;;;;;;;;;;34.41;30.77;99575.38;4950620;28;97714;-69
2022/05/24 10:09:21;;;;;;;;;;;;;;;36.49;28.32;99580.34;4958993;28;98398;-70
2022/05/24 10:11:53;;;;;;;;;;;;;;;38.01;27.00;99590.72;4959234;28;104600;-63
2022/05/24 10:14:48;;;;;;;;;;;;;;;39.41;26.02;99584.31;4953535;28;118563;-69
2022/05/24 10:17:32;;;;;;;;;;;;;;;40.82;24.89;99580.66;4943706;28;117485;-63
2022/05/24 10:20:10;;;;;;;;;;;;;;;41.93;23.41;99574.47;4969691;28;119285;-70
2022/05/24 10:22:57;;;;;;;;;;;;;;;42.34;22.81;99574.19;4962061;28;98937;-63
2022/05/24 10:25:23;;;;;;;;;;;;;;;41.04;23.91;99563.22;4960612;28;99141;-62
2022/05/24 10:27:59;;;;;;;;;;;;;;;40.54;24.14;99560.56;4946808;28;97813;-64
2022/05/24 10:30:29;;;;;;;;;;;;;;;38.71;25.75;99548.22;4956656;28;98946;-63
2022/05/24 10:39:43;;;;;;;;;;;;;;;38.25;25.87;99551.34;4949356;28;97947;-63
2022/05/24 10:42:14;;;;;;;;;;;;;;;39.12;25.13;99556.13;4962780;28;98233;-70
2022/05/24 10:44:49;;;;;;;;;;;;;;;39.09;25.30;99552.25;4960975;28;98891;-65
2022/05/24 10:48:02;;;;;;;;;;;;;;;38.13;25.66;99557.22;4943515;28;98236;-70
2022/05/24 10:50:39;;;;;;;;;;;;;;;38.79;24.83;99563.50;4961479;28;97957;-69
2022/05/24 10:53:09;;;;;;;;;;;;;;;39.31;24.40;99565.19;4944746;28;113206;-62
2022/05/24 10:55:44;;;;;;;;;;;;;;;39.33;24.27;99562.66;4940331;28;125414;-63
2022/05/24 10:58:13;;;;;;;;;;;;;;;38.75;24.81;99548.00;4960446;28;123132;-62
2022/05/24 11:00:46;;;;;;;;;;;;;;;38.79;24.76;99554.25;4943370;28;97890;-70
2022/05/24 11:03:28;;;;;;;;;;;;;;;37.97;24.95;99550.75;4943615;28;98005;-63
2022/05/24 11:06:26;;;;;;;;;;;;;;;36.60;25.73;99549.81;4956289;28;115636;-63
2022/05/24 11:09:02;;;;;;;;;;;;;;;35.42;26.66;99551.00;4939803;28;110044;-63
2022/05/24 11:11:57;;;;;;;;;;;;;;;34.64;27.48;99546.25;4938193;28;121148;-70
2022/05/24 11:14:41;;;;;;;;;;;;;;;34.00;28.27;99534.44;4959407;28;98425;-70
2022/05/24 11:17:09;;;;;;;;;;;;;;;33.29;28.65;99535.41;4940176;28;98695;-62
2022/05/24 11:19:36;;;;;;;;;;;;;;;32.60;29.42;99546.09;4956147;28;98045;-63
2022/05/24 11:22:22;;;;;;;;;;;;;;;31.99;30.12;99553.97;4942343;28;98256;-70
2022/05/24 11:25:11;;;;;;;;;;;;;;;31.43;30.35;99558.81;4961007;28;98994;-69
2022/05/24 11:27:39;;;;;;;;;;;;;;;31.26;30.16;99560.75;4945732;28;98791;-63
2022/05/24 11:30:15;;;;;;;;;;;;;;;31.43;30.12;99564.38;4956373;28;97995;-62
2022/05/24 11:33:10;;;;;;;;;;;;;;;32.22;29.38;99568.94;4940857;28;120062;-63
2022/05/24 11:35:40;;;;;;;;;;;;;;;33.49;27.93;99576.34;4939241;28;99069;-69
2022/05/24 11:38:13;;;;;;;;;;;;;;;34.48;27.28;99585.56;4940095;28;98122;-70
2022/05/24 11:40:42;;;;;;;;;;;;;;;35.80;26.51;99583.53;4956581;28;98001;-70
2022/05/24 11:43:10;;;;;;;;;;;;;;;36.66;26.00;99591.25;4941814;28;97827;-70
2022/05/24 11:45:46;;;;;;;;;;;;;;;37.16;25.53;99587.06;4952356;27;98266;-68
2022/05/24 11:48:13;;;;;;;;;;;;;;;37.71;24.34;99581.28;4953587;28;129140;-71
2022/05/24 11:50:44;;;;;;;;;;;;;;;37.95;24.15;99591.84;4961149;28;98072;-70
2022/05/24 11:53:11;;;;;;;;;;;;;;;38.60;23.88;99586.63;4961452;28;97783;-70
2022/05/24 11:55:55;;;;;;;;;;;;;;;38.24;23.93;99577.94;4959044;28;98281;-70
2022/05/24 11:58:21;;;;;;;;;;;;;;;37.77;24.56;99585.03;4941732;28;99063;-71
2022/05/24 12:00:57;;;;;;;;;;;;;;;38.41;23.93;99574.72;4941509;28;98353;-70
2022/05/24 12:09:19;;;;;;;;;;;;;;;37.49;23.72;99592.75;4956762;28;98142;-63
2022/05/24 12:11:45;;;;;;;;;;;;;;;36.58;24.61;99585.19;4960640;28;114650;-70
2022/05/24 12:14:14;;;;;;;;;;;;;;;35.63;25.21;99591.41;4928073;28;97973;-70
2022/05/24 12:16:42;;;;;;;;;;;;;;;35.03;25.80;99581.25;4948036;28;98463;-70
2022/05/24 12:19:10;;;;;;;;;;;;;;;34.83;25.59;99580.75;4947030;28;98743;-63
2022/05/24 12:21:55;;;;;;;;;;;;;;;34.51;25.92;99584.69;4955911;28;98844;-63
2022/05/24 12:24:24;;;;;;;;;;;;;;;34.09;25.99;99585.63;4938633;28;98022;-63
2022/05/24 12:27:15;;;;;;;;;;;;;;;33.84;26.29;99585.59;4948102;28;98406;-62
2022/05/24 12:29:50;;;;;;;;;;;;;;;33.59;26.59;99591.97;4960095;28;98451;-63
2022/05/24 12:32:17;;;;;;;;;;;;;;;33.34;26.78;99599.06;4944134;28;98124;-63
2022/05/24 12:34:43;;;;;;;;;;;;;;;33.19;27.31;99598.69;4959186;28;97820;-63
2022/05/24 12:37:28;;;;;;;;;;;;;;;33.02;26.84;99596.41;4959240;28;128075;-63
2022/05/24 12:40:12;;;;;;;;;;;;;;;32.81;27.14;99587.34;4942188;28;124899;-63
2022/05/24 12:42:49;;;;;;;;;;;;;;;32.63;27.48;99599.00;4942074;28;98330;-63
2022/05/24 12:45:21;;;;;;;;;;;;;;;32.48;28.00;99604.16;4951639;28;98274;-63
2022/05/24 12:47:50;;;;;;;;;;;;;;;32.22;28.11;99594.78;4941425;28;98506;-62
2022/05/24 12:50:46;;;;;;;;;;;;;;;31.96;28.55;99598.63;4941263;28;99159;-69
2022/05/24 12:53:13;;;;;;;;;;;;;;;31.64;29.04;99591.00;4935403;28;98477;-69
2022/05/24 12:55:55;;;;;;;;;;;;;;;31.40;29.26;99593.06;4940328;28;97925;-63
2022/05/24 12:58:41;;;;;;;;;;;;;;;31.15;29.72;99593.56;4940586;28;98863;-63
2022/05/24 13:01:17;;;;;;;;;;;;;;;30.92;29.73;99594.41;4957828;28;98090;-69
2022/05/24 13:03:51;;;;;;;;;;;;;;;30.73;29.92;99595.91;4957750;28;98236;-69
2022/05/24 13:06:21;;;;;;;;;;;;;;;30.47;30.55;99601.13;4958222;28;97857;-63
2022/05/24 13:08:48;;;;;;;;;;;;;;;30.23;31.02;99600.34;4959465;28;98899;-69
2022/05/24 13:11:14;;;;;;;;;;;;;;;30.01;31.29;99602.63;4939268;28;99141;-70
2022/05/24 13:13:40;;;;;;;;;;;;;;;29.77;31.25;99614.91;4955511;28;128386;-64
2022/05/24 13:16:06;;;;;;;;;;;;;;;29.56;31.74;99613.97;4958965;28;97923;-70
2022/05/24 13:18:33;;;;;;;;;;;;;;;29.49;31.34;99610.50;4937006;28;128145;-69
2022/05/24 13:21:00;;;;;;;;;;;;;;;29.29;31.51;99613.13;4954126;28;115469;-69
2022/05/24 13:23:34;;;;;;;;;;;;;;;28.96;32.20;99620.19;4940668;28;103966;-69
2022/05/24 13:26:06;;;;;;;;;;;;;;;28.57;32.33;99627.69;4955409;28;97980;-62
2022/05/24 13:28:38;;;;;;;;;;;;;;;28.21;32.62;99629.13;4942348;28;99152;-69
2022/05/24 13:34:25;;;;;;;;;;;;;;;27.77;32.87;99631.38;4959425;28;97716;-69
2022/05/24 13:37:08;;;;;;;;;;;;;;;27.67;32.60;99640.50;4959938;28;97817;-62
2022/05/24 13:39:43;;;;;;;;;;;;;;;27.54;32.71;99644.91;4940120;28;98581;-62
2022/05/24 13:42:21;;;;;;;;;;;;;;;27.39;32.64;99647.75;4940195;28;98427;-62
2022/05/24 13:45:06;;;;;;;;;;;;;;;27.30;32.62;99646.56;4942500;28;127633;-68
2022/05/24 13:47:36;;;;;;;;;;;;;;;27.17;32.82;99660.06;4951212;28;97961;-69